Time;durP1;ratioP1;P1;durP2;ratioP2;P2;SDS_P1;SDS_P2;PMS_P1;PMS_P2;Temp;Humidity;BMP_temperature;BMP_pressure;BME280_temperature;BME280_humidity;BME280_pressure;Samples;Min_cycle;Max_cycle;Signal;HPM_P1;HPM_P2
2023/10/03 00:01:10;;;;;;;25.77;10.02;;;;;;;16.68;76.36;100054.78;6204571;23;20031;-84
2023/10/03 00:03:37;;;;;;;23.95;9.88;;;;;;;16.68;76.33;100052.09;6179966;23;20031;-84
2023/10/03 00:06:05;;;;;;;25.17;9.95;;;;;;;16.68;76.33;100052.09;6155967;23;20092;-83
2023/10/03 00:08:32;;;;;;;24.23;9.38;;;;;;;16.66;76.19;100048.75;6204396;23;20024;-84
2023/10/03 00:10:59;;;;;;;20.23;9.32;;;;;;;16.63;76.45;100047.25;6180454;23;20043;-84
2023/10/03 00:13:26;;;;;;;26.73;10.25;;;;;;;16.62;76.47;100044.75;6177918;23;20610;-84
2023/10/03 00:15:53;;;;;;;21.70;9.35;;;;;;;16.63;76.42;100041.06;6203039;23;20051;-84
2023/10/03 00:18:20;;;;;;;24.08;9.77;;;;;;;16.65;76.23;100045.25;6178928;23;20023;-85
2023/10/03 00:20:47;;;;;;;26.42;10.68;;;;;;;16.62;76.27;100037.53;6180156;23;20028;-84
2023/10/03 00:23:14;;;;;;;23.27;9.15;;;;;;;16.61;76.05;100035.00;6179858;23;20024;-84
2023/10/03 00:25:41;;;;;;;21.60;9.35;;;;;;;16.59;76.03;100026.28;6154089;23;20027;-84
2023/10/03 00:28:10;;;;;;;20.85;9.43;;;;;;;16.57;76.10;100031.84;6180426;23;20115;-84
2023/10/03 00:30:41;;;;;;;21.63;9.18;;;;;;;16.57;76.06;100029.16;6154600;23;20092;-86
2023/10/03 00:33:11;;;;;;;26.98;10.75;;;;;;;16.54;75.93;100026.84;6204562;23;20031;-85
2023/10/03 00:35:40;;;;;;;23.02;9.68;;;;;;;16.53;75.80;100038.53;6204423;23;20009;-84
2023/10/03 00:38:13;;;;;;;25.30;10.27;;;;;;;16.52;75.65;100028.84;6180527;23;20079;-84
2023/10/03 00:40:40;;;;;;;21.70;9.68;;;;;;;16.50;75.53;100029.00;6180271;23;20091;-84
2023/10/03 00:43:07;;;;;;;23.23;9.88;;;;;;;16.49;75.59;100024.66;6205741;23;20028;-84
2023/10/03 00:45:34;;;;;;;21.85;9.80;;;;;;;16.46;75.65;100027.69;6178745;23;20777;-83
2023/10/03 00:48:07;;;;;;;24.20;9.70;;;;;;;16.48;75.75;100033.69;6154883;23;20020;-84
2023/10/03 00:50:35;;;;;;;25.48;9.57;;;;;;;16.49;75.70;100034.53;6180260;23;20043;-84
2023/10/03 00:53:08;;;;;;;23.08;9.68;;;;;;;16.47;75.63;100031.19;6179887;23;20024;-83
2023/10/03 00:55:40;;;;;;;26.80;9.75;;;;;;;16.43;75.86;100027.16;6155369;23;20475;-84
2023/10/03 01:00:45;;;;;;;24.05;10.25;;;;;;;16.33;75.36;100011.25;6204550;23;20047;-84
2023/10/03 01:03:30;;;;;;;23.35;9.63;;;;;;;16.30;74.97;100018.81;6179768;23;20008;-84
2023/10/03 01:06:07;;;;;;;21.67;8.82;;;;;;;16.36;75.14;100010.06;6154544;23;20095;-84
2023/10/03 01:08:42;;;;;;;24.20;9.65;;;;;;;16.25;74.69;100008.59;6155245;23;20480;-84
2023/10/03 01:11:16;;;;;;;24.70;9.77;;;;;;;16.35;75.18;100003.06;6154327;23;20659;-84
2023/10/03 01:13:47;;;;;;;22.58;9.27;;;;;;;16.28;75.24;100006.44;6205772;23;20095;-84
2023/10/03 01:16:28;;;;;;;22.23;10.68;;;;;;;16.29;75.08;100004.56;6130696;23;20060;-85
2023/10/03 01:18:59;;;;;;;24.83;9.43;;;;;;;16.27;74.93;99995.88;6154552;23;20094;-84
2023/10/03 01:21:26;;;;;;;21.85;8.98;;;;;;;16.26;75.12;99991.53;6178866;23;20451;-84
2023/10/03 01:23:54;;;;;;;21.20;8.93;;;;;;;16.25;74.99;99984.47;6178470;23;20503;-84
2023/10/03 01:26:24;;;;;;;22.08;9.32;;;;;;;16.22;75.08;99988.31;6130686;23;20059;-83
2023/10/03 01:28:51;;;;;;;24.13;9.35;;;;;;;16.22;74.70;99977.59;6204273;23;20021;-84
2023/10/03 01:31:18;;;;;;;24.70;9.55;;;;;;;16.23;74.83;99979.28;6180018;23;20035;-84
2023/10/03 01:33:46;;;;;;;23.48;9.52;;;;;;;16.18;74.54;99973.59;6178568;23;20047;-84
2023/10/03 01:36:13;;;;;;;21.77;9.23;;;;;;;16.18;74.73;99987.00;6179488;23;20065;-84
2023/10/03 01:38:42;;;;;;;24.02;9.05;;;;;;;16.17;74.93;99985.31;6154677;23;20413;-84
2023/10/03 01:41:09;;;;;;;22.85;9.55;;;;;;;16.16;74.90;99989.00;6204301;23;20036;-84
2023/10/03 01:43:38;;;;;;;25.70;10.38;;;;;;;16.11;74.98;99977.97;6154168;23;20040;-84
2023/10/03 01:46:07;;;;;;;19.40;9.07;;;;;;;16.12;75.25;99982.31;6155218;23;20071;-84
2023/10/03 01:48:34;;;;;;;26.30;9.35;;;;;;;16.14;75.44;99972.25;6204174;23;20017;-84
2023/10/03 01:51:02;;;;;;;22.45;9.05;;;;;;;16.11;74.82;99971.78;6204553;23;20027;-86
2023/10/03 01:53:29;;;;;;;22.92;9.48;;;;;;;16.12;75.01;99960.88;6154537;23;20017;-84
2023/10/03 01:55:57;;;;;;;21.20;9.20;;;;;;;16.07;75.17;99965.91;6155649;23;20021;-84
2023/10/03 01:58:25;;;;;;;18.73;9.77;;;;;;;16.08;74.97;99969.41;6155301;23;20009;-84
2023/10/03 02:00:52;;;;;;;23.70;10.93;;;;;;;16.04;74.79;99961.72;6202736;23;20123;-83
2023/10/03 02:03:19;;;;;;;23.33;9.60;;;;;;;16.03;74.89;99957.38;6179412;23;20461;-84
2023/10/03 02:05:46;;;;;;;22.67;9.05;;;;;;;16.03;75.30;99962.72;6178743;23;20028;-84
2023/10/03 02:08:17;;;;;;;26.45;10.38;;;;;;;16.02;75.23;99947.66;6155112;23;20024;-84
2023/10/03 02:10:51;;;;;;;26.60;10.60;;;;;;;15.99;75.24;99952.50;6130183;23;20082;-84
2023/10/03 02:13:21;;;;;;;21.92;9.52;;;;;;;15.97;75.00;99949.16;6155628;23;20039;-88
2023/10/03 02:15:50;;;;;;;21.75;10.25;;;;;;;15.96;75.06;99956.38;6178649;23;20465;-83
2023/10/03 02:18:18;;;;;;;23.25;9.35;;;;;;;15.93;75.09;99947.84;6153531;23;20017;-84
2023/10/03 02:20:53;;;;;;;25.23;9.18;;;;;;;15.87;74.22;99943.13;6178875;23;20028;-83
2023/10/03 02:23:24;;;;;;;21.75;9.10;;;;;;;15.88;74.51;99942.97;6202681;23;20040;-83
2023/10/03 02:25:56;;;;;;;23.88;9.55;;;;;;;15.80;74.50;99938.47;6203514;23;20028;-83
2023/10/03 02:28:26;;;;;;;23.55;9.38;;;;;;;15.84;74.74;99938.94;6153236;23;20095;-83
2023/10/03 02:30:55;;;;;;;19.98;9.13;;;;;;;15.84;74.63;99945.13;6180035;23;20094;-84
2023/10/03 02:33:24;;;;;;;22.83;9.23;;;;;;;15.83;74.74;99935.44;6153703;23;20043;-85
2023/10/03 02:35:51;;;;;;;18.60;9.00;;;;;;;15.83;74.49;99935.44;6155235;23;20025;-84
2023/10/03 02:38:25;;;;;;;21.77;8.95;;;;;;;15.83;74.31;99915.88;6179290;23;20095;-83
2023/10/03 02:40:59;;;;;;;23.05;8.45;;;;;;;15.76;73.98;99914.84;6132609;23;20075;-84
2023/10/03 02:43:34;;;;;;;24.15;9.48;;;;;;;15.78;74.47;99912.84;6154070;23;20375;-84
2023/10/03 02:46:04;;;;;;;23.85;9.00;;;;;;;15.76;74.50;99914.84;6179145;23;20024;-84
2023/10/03 02:48:32;;;;;;;23.83;9.80;;;;;;;15.77;74.45;99917.38;6153096;23;20024;-84
2023/10/03 02:51:01;;;;;;;20.80;9.27;;;;;;;15.79;74.49;99910.00;6154169;23;20023;-84
2023/10/03 02:53:28;;;;;;;19.58;8.73;;;;;;;15.74;74.49;99915.00;6179528;23;20025;-84
2023/10/03 02:55:55;;;;;;;25.60;9.88;;;;;;;15.69;74.66;99908.47;6156292;23;20094;-83
2023/10/03 02:58:22;;;;;;;26.23;9.23;;;;;;;15.68;74.43;99910.31;6179157;23;20024;-83
2023/10/03 03:00:53;;;;;;;22.98;9.25;;;;;;;15.67;74.65;99902.44;6180565;23;20021;-83
2023/10/03 03:03:23;;;;;;;24.25;9.80;;;;;;;15.64;74.90;99917.00;6179609;23;21497;-87
2023/10/03 03:05:50;;;;;;;18.95;8.95;;;;;;;15.64;75.06;99907.13;6205565;23;20032;-84
2023/10/03 03:10:57;;;;;;;21.70;9.43;;;;;;;15.68;74.77;99913.00;6181110;23;20020;-84
2023/10/03 03:13:26;;;;;;;21.15;9.25;;;;;;;15.66;74.75;99914.16;6181810;23;20024;-83
2023/10/03 03:16:01;;;;;;;23.45;9.77;;;;;;;15.65;74.90;99910.66;6204817;23;20551;-83
2023/10/03 03:18:36;;;;;;;21.98;8.95;;;;;;;15.66;75.10;99906.97;6205855;23;20024;-84
2023/10/03 03:21:08;;;;;;;27.27;10.18;;;;;;;15.66;75.17;99906.13;6181914;23;20020;-84
2023/10/03 03:23:36;;;;;;;25.08;9.38;;;;;;;15.62;74.94;99914.50;6180654;23;20056;-84
2023/10/03 03:26:20;;;;;;;23.02;9.25;;;;;;;15.61;75.09;99909.28;6180452;23;20520;-84
2023/10/03 03:28:49;;;;;;;24.10;10.18;;;;;;;15.57;75.34;99918.66;6205113;23;20449;-83
2023/10/03 03:31:31;;;;;;;21.38;10.02;;;;;;;15.59;75.46;99916.66;6179225;23;20039;-84
2023/10/03 03:34:00;;;;;;;26.33;11.20;;;;;;;15.58;75.31;99923.03;6179478;23;20599;-83
2023/10/03 03:36:34;;;;;;;24.60;9.75;;;;;;;15.56;75.29;99911.63;6204539;23;20404;-84
2023/10/03 03:39:06;;;;;;;26.98;9.73;;;;;;;15.53;75.11;99904.78;6182172;23;20023;-83
2023/10/03 03:41:34;;;;;;;25.10;9.95;;;;;;;15.56;74.97;99906.28;6205633;23;22053;-83
2023/10/03 03:44:01;;;;;;;25.73;10.57;;;;;;;15.52;74.65;99904.94;6203780;23;20016;-83
2023/10/03 03:46:29;;;;;;;26.77;10.07;;;;;;;15.50;74.53;99910.47;6199686;23;20024;-84
2023/10/03 03:48:58;;;;;;;24.15;9.30;;;;;;;15.49;74.51;99907.94;6204420;23;20087;-84
2023/10/03 03:51:25;;;;;;;24.50;9.30;;;;;;;15.48;74.45;99903.59;6205698;23;20043;-85
2023/10/03 03:53:53;;;;;;;23.63;10.27;;;;;;;15.45;74.46;99896.75;6179286;23;20016;-83
2023/10/03 03:56:20;;;;;;;23.77;9.30;;;;;;;15.40;74.57;99896.41;6179859;23;20047;-84
2023/10/03 03:58:48;;;;;;;23.02;8.95;;;;;;;15.40;74.38;99894.56;6205573;23;20055;-83
2023/10/03 04:01:19;;;;;;;21.95;8.77;;;;;;;15.39;74.47;99895.56;6156367;23;20043;-83
2023/10/03 04:03:51;;;;;;;26.60;10.32;;;;;;;15.41;74.59;99908.78;6180570;23;20676;-84
2023/10/03 04:06:19;;;;;;;25.92;9.98;;;;;;;15.37;74.71;99900.25;6180926;23;20582;-84
2023/10/03 04:08:45;;;;;;;20.77;8.85;;;;;;;15.36;74.72;99895.06;6156172;23;20020;-85
2023/10/03 04:11:32;;;;;;;22.50;9.88;;;;;;;15.39;74.82;99889.38;6158975;23;20020;-84
2023/10/03 04:14:00;;;;;;;24.75;10.23;;;;;;;15.36;74.91;99895.06;6154051;23;20110;-84
2023/10/03 04:16:28;;;;;;;24.33;10.02;;;;;;;15.36;74.89;99893.22;6206395;23;20047;-84
2023/10/03 04:18:55;;;;;;;21.50;9.32;;;;;;;15.33;74.99;99895.38;6180939;23;20022;-84
2023/10/03 04:21:26;;;;;;;22.27;9.25;;;;;;;15.32;74.89;99891.88;6179763;23;20021;-83
2023/10/03 04:23:55;;;;;;;19.48;8.75;;;;;;;15.30;74.98;99891.19;6204250;23;20016;-84
2023/10/03 04:26:22;;;;;;;22.63;8.88;;;;;;;15.30;74.97;99893.88;6179740;23;20078;-83
2023/10/03 04:28:49;;;;;;;23.13;9.07;;;;;;;15.28;75.00;99885.16;6179842;23;20021;-87
2023/10/03 04:31:15;;;;;;;22.45;9.02;;;;;;;15.28;75.09;99889.69;6179620;23;20020;-84
2023/10/03 04:33:44;;;;;;;22.95;9.20;;;;;;;15.28;74.97;99884.34;6180103;23;20352;-84
2023/10/03 04:36:12;;;;;;;26.73;9.50;;;;;;;15.27;75.20;99880.84;6155221;23;20679;-84
2023/10/03 04:38:40;;;;;;;25.88;10.00;;;;;;;15.29;75.13;99894.91;6204762;23;20091;-83
2023/10/03 04:41:09;;;;;;;25.73;10.07;;;;;;;15.30;75.13;99891.19;6180533;23;20090;-84
2023/10/03 04:43:36;;;;;;;19.77;8.60;;;;;;;15.31;75.12;99890.19;6179305;23;20024;-84
2023/10/03 04:46:04;;;;;;;22.65;8.32;;;;;;;15.30;75.41;99888.53;6205283;23;20025;-84
2023/10/03 04:48:31;;;;;;;23.25;9.82;;;;;;;15.30;75.23;99885.03;6178853;23;20360;-84
2023/10/03 04:50:59;;;;;;;23.58;9.65;;;;;;;15.30;75.38;99885.84;6155923;23;20445;-83
2023/10/03 04:53:26;;;;;;;20.85;8.75;;;;;;;15.24;75.62;99881.16;6154670;23;20466;-83
2023/10/03 04:55:53;;;;;;;21.73;8.75;;;;;;;15.25;76.13;99885.50;6153838;23;20020;-85
2023/10/03 04:58:21;;;;;;;21.70;9.02;;;;;;;15.26;75.80;99887.16;6179631;23;20016;-85
2023/10/03 05:00:49;;;;;;;21.52;8.88;;;;;;;15.26;76.18;99883.66;6180438;23;20016;-84
2023/10/03 05:03:19;;;;;;;22.67;9.25;;;;;;;15.26;76.04;99881.00;6205168;23;20016;-83
2023/10/03 05:05:48;;;;;;;22.50;9.50;;;;;;;15.25;76.08;99888.19;6154313;23;20093;-83
2023/10/03 05:08:18;;;;;;;23.58;9.38;;;;;;;15.24;76.26;99875.81;6154990;23;20020;-84
2023/10/03 05:10:45;;;;;;;22.27;9.10;;;;;;;15.26;76.53;99879.16;6204378;23;20020;-84
2023/10/03 05:13:12;;;;;;;23.15;8.95;;;;;;;15.21;76.39;99876.13;6179086;23;20034;-85
2023/10/03 05:15:39;;;;;;;23.48;8.32;;;;;;;15.21;76.22;99881.47;6204061;23;20330;-84
2023/10/03 05:18:06;;;;;;;21.77;9.15;;;;;;;15.18;76.25;99879.97;6178736;23;20020;-82
2023/10/03 05:20:40;;;;;;;22.25;9.00;;;;;;;15.15;76.24;99880.31;6204121;23;20024;-84
2023/10/03 05:23:08;;;;;;;25.50;10.05;;;;;;;15.18;76.20;99882.66;6155341;23;20032;-84
2023/10/03 05:25:42;;;;;;;22.52;8.88;;;;;;;15.20;76.21;99887.84;6180686;23;20620;-83
2023/10/03 05:28:11;;;;;;;26.40;9.85;;;;;;;15.16;76.19;99882.00;6204759;23;20024;-84
2023/10/03 05:30:38;;;;;;;18.70;8.45;;;;;;;15.14;75.78;99878.66;6203397;23;20040;-83
2023/10/03 05:33:06;;;;;;;19.02;8.27;;;;;;;15.12;75.95;99883.31;6179628;23;20020;-84
2023/10/03 05:35:34;;;;;;;23.67;9.30;;;;;;;15.13;75.79;99884.16;6155066;23;20012;-84
2023/10/03 05:38:10;;;;;;;21.92;9.23;;;;;;;15.06;75.71;99883.13;6154928;23;20025;-83
2023/10/03 05:40:37;;;;;;;22.63;9.45;;;;;;;15.09;75.83;99889.00;6203807;23;20432;-84
2023/10/03 05:43:05;;;;;;;26.77;9.48;;;;;;;15.10;76.10;99893.34;6179955;23;20024;-84
2023/10/03 05:45:37;;;;;;;19.60;8.57;;;;;;;15.06;76.05;99892.00;6177542;23;20047;-84
2023/10/03 05:48:04;;;;;;;21.85;9.77;;;;;;;15.08;76.04;99894.50;6202234;23;20021;-85
2023/10/03 05:50:33;;;;;;;22.77;9.50;;;;;;;15.07;76.28;99891.00;6177358;23;20028;-84
2023/10/03 05:53:01;;;;;;;26.58;9.23;;;;;;;15.10;76.54;99887.97;6177492;23;20020;-84
2023/10/03 05:55:28;;;;;;;18.15;8.65;;;;;;;15.09;76.64;99886.31;6177765;23;20024;-84
2023/10/03 05:57:55;;;;;;;21.10;9.05;;;;;;;15.10;76.89;99892.50;6179828;23;20067;-83
2023/10/03 06:00:23;;;;;;;31.00;10.88;;;;;;;15.12;76.64;99891.34;6203534;23;20040;-83
2023/10/03 06:02:50;;;;;;;21.80;9.75;;;;;;;15.10;76.88;99896.00;6203985;23;20033;-83
2023/10/03 06:05:17;;;;;;;27.33;9.18;;;;;;;15.15;77.02;99895.53;6179411;23;20446;-83
2023/10/03 06:07:44;;;;;;;26.85;9.68;;;;;;;15.14;77.35;99893.84;6179755;23;20025;-83
2023/10/03 06:10:13;;;;;;;22.60;8.98;;;;;;;15.15;77.31;99896.34;6154501;23;20029;-83
2023/10/03 06:12:40;;;;;;;21.63;9.38;;;;;;;15.18;77.08;99896.03;6152998;23;20071;-83
2023/10/03 06:15:08;;;;;;;28.13;10.10;;;;;;;15.18;76.76;99893.34;6203166;23;20083;-83
2023/10/03 06:17:35;;;;;;;24.63;10.23;;;;;;;15.18;76.77;99897.88;6175901;23;20116;-83
2023/10/03 06:20:05;;;;;;;24.95;10.02;;;;;;;15.20;76.61;99902.03;6152739;23;20368;-83
2023/10/03 06:22:35;;;;;;;23.63;10.68;;;;;;;15.24;76.82;99893.69;6203742;23;20059;-83
2023/10/03 06:25:03;;;;;;;23.10;9.93;;;;;;;15.28;76.53;99903.06;6154102;23;20033;-83
2023/10/03 06:27:31;;;;;;;29.65;10.68;;;;;;;15.28;76.20;99903.06;6153937;23;20074;-83
2023/10/03 06:29:58;;;;;;;25.17;10.57;;;;;;;15.32;76.64;99905.25;6156464;23;20058;-83
2023/10/03 06:32:25;;;;;;;26.10;10.93;;;;;;;15.36;77.00;99901.22;6205812;23;20017;-84
2023/10/03 06:34:52;;;;;;;29.08;12.43;;;;;;;15.36;76.75;99895.06;6182204;23;20082;-84
2023/10/03 06:37:19;;;;;;;29.98;11.23;;;;;;;15.40;76.64;99893.72;6156033;23;20348;-83
2023/10/03 06:39:47;;;;;;;28.13;11.38;;;;;;;15.39;76.68;99900.94;6204792;23;20496;-83
2023/10/03 06:42:14;;;;;;;25.83;11.20;;;;;;;15.43;76.51;99901.41;6180892;23;20040;-83
2023/10/03 06:44:43;;;;;;;28.02;10.57;;;;;;;15.44;77.06;99908.44;6205182;23;20039;-85
2023/10/03 06:47:10;;;;;;;26.30;10.32;;;;;;;15.47;77.23;99896.56;6180742;23;20128;-83
2023/10/03 06:49:38;;;;;;;26.45;11.02;;;;;;;15.48;76.93;99893.72;6206279;23;20041;-83
2023/10/03 06:52:04;;;;;;;25.92;11.00;;;;;;;15.53;77.22;99894.06;6180362;23;20017;-83
2023/10/03 06:54:31;;;;;;;29.95;11.23;;;;;;;15.57;77.57;99905.25;6179038;23;20051;-83
2023/10/03 06:56:58;;;;;;;31.63;11.50;;;;;;;15.60;77.00;99907.63;6178623;23;20096;-83
2023/10/03 06:59:25;;;;;;;29.30;11.35;;;;;;;15.66;76.96;99903.44;6179939;23;20028;-83
2023/10/03 07:01:52;;;;;;;29.38;10.73;;;;;;;15.66;77.27;99909.63;6181829;23;20020;-83
2023/10/03 07:04:20;;;;;;;27.88;11.60;;;;;;;15.66;77.15;99916.84;6180498;23;20021;-83
2023/10/03 07:06:50;;;;;;;27.52;11.50;;;;;;;15.65;77.54;99913.31;6154303;23;20021;-83
2023/10/03 07:09:18;;;;;;;31.23;11.40;;;;;;;15.67;78.08;99918.50;6207538;23;20020;-83
2023/10/03 07:11:49;;;;;;;32.67;11.57;;;;;;;15.64;78.03;99920.50;6177960;23;20044;-84
2023/10/03 07:14:16;;;;;;;32.55;11.48;;;;;;;15.64;77.99;99917.00;6203427;23;20108;-82
2023/10/03 07:16:46;;;;;;;32.90;13.35;;;;;;;15.67;78.28;99924.69;6201450;23;20404;-82
2023/10/03 07:19:16;;;;;;;29.58;11.75;;;;;;;15.68;78.30;99918.34;6200036;23;20092;-82
2023/10/03 07:21:43;;;;;;;26.00;11.15;;;;;;;15.72;78.21;99922.41;6200942;23;20028;-83
2023/10/03 07:24:10;;;;;;;33.05;11.43;;;;;;;15.73;78.37;99924.06;6178229;23;20051;-85
2023/10/03 07:26:37;;;;;;;32.75;12.93;;;;;;;15.76;78.50;99920.22;6179490;23;20034;-85
2023/10/03 07:29:04;;;;;;;30.85;12.07;;;;;;;15.78;78.70;99924.41;6177569;23;20091;-83
2023/10/03 07:31:32;;;;;;;30.63;12.55;;;;;;;15.80;78.51;99918.88;6197529;23;20071;-84
2023/10/03 07:34:02;;;;;;;30.85;11.82;;;;;;;15.83;78.66;99916.69;6165661;23;20384;-84
2023/10/03 07:36:29;;;;;;;29.33;11.82;;;;;;;15.87;78.73;99914.50;6204795;23;20020;-85
2023/10/03 07:38:56;;;;;;;36.17;13.10;;;;;;;15.89;78.68;99917.88;6177538;23;20025;-85
2023/10/03 07:41:23;;;;;;;35.97;13.98;;;;;;;15.94;79.09;99922.72;6201716;23;20024;-84
2023/10/03 07:43:52;;;;;;;37.65;13.40;;;;;;;15.94;79.10;99914.69;6178221;23;20024;-83
2023/10/03 07:46:22;;;;;;;32.30;14.15;;;;;;;15.96;79.04;99923.41;6178782;23;20023;-82
2023/10/03 07:48:52;;;;;;;29.83;11.88;;;;;;;15.94;79.15;99917.38;6121294;23;20028;-83
2023/10/03 07:51:26;;;;;;;30.35;12.25;;;;;;;15.97;79.19;99917.03;6191434;23;20024;-83
2023/10/03 07:53:55;;;;;;;32.22;12.30;;;;;;;15.97;79.25;99917.03;6177083;23;20071;-83
2023/10/03 07:56:29;;;;;;;32.72;12.93;;;;;;;16.00;79.40;99922.03;6201924;23;20337;-83
2023/10/03 07:59:01;;;;;;;31.30;12.18;;;;;;;15.98;79.78;99924.91;6201780;23;20071;-82
2023/10/03 08:01:30;;;;;;;31.27;12.63;;;;;;;16.00;79.38;99920.22;6177298;23;20020;-83
2023/10/03 08:04:14;;;;;;;26.15;12.10;;;;;;;16.01;79.63;99918.38;6180422;23;20024;-84
2023/10/03 08:06:42;;;;;;;37.55;13.43;;;;;;;16.03;79.81;99919.03;6203424;23;20020;-83
2023/10/03 08:09:09;;;;;;;30.40;12.40;;;;;;;16.04;79.54;99923.38;6154582;23;20031;-83
2023/10/03 08:11:38;;;;;;;31.50;12.23;;;;;;;16.04;79.80;99923.38;6164387;23;20028;-82
2023/10/03 08:14:11;;;;;;;33.78;12.52;;;;;;;16.08;79.88;99927.41;6165056;23;20031;-83
2023/10/03 08:16:42;;;;;;;;;;;;;;;15.93;82.15;99931.78;6152283;23;20051;-83
2023/10/03 08:19:21;;;;;;;26.83;11.85;;;;;;;16.03;81.15;99932.44;6165974;23;20296;-84
2023/10/03 08:21:49;;;;;;;31.80;12.25;;;;;;;16.08;80.77;99926.53;6154944;23;20032;-83
2023/10/03 08:24:19;;;;;;;29.90;12.35;;;;;;;16.12;80.86;99930.56;6153812;23;20052;-83
2023/10/03 08:26:46;;;;;;;31.80;12.38;;;;;;;16.16;80.71;99929.25;6162661;23;20020;-83
2023/10/03 08:29:23;;;;;;;32.75;12.93;;;;;;;16.18;80.83;99932.56;6176617;23;20023;-83
2023/10/03 08:31:56;;;;;;;29.83;11.30;;;;;;;16.19;80.54;99928.91;6203013;23;20059;-83
2023/10/03 08:34:30;;;;;;;29.08;12.73;;;;;;;16.18;81.12;99937.91;6203150;23;20682;-84
2023/10/03 08:37:02;;;;;;;27.83;11.50;;;;;;;16.28;81.14;99933.22;6177255;23;20079;-83
2023/10/03 08:39:32;;;;;;;28.23;11.05;;;;;;;16.31;81.26;99930.22;6180207;23;20020;-83
2023/10/03 08:42:13;;;;;;;26.20;10.73;;;;;;;16.33;81.14;99933.53;6178401;23;20020;-83
2023/10/03 08:44:53;;;;;;;23.00;10.35;;;;;;;16.37;81.22;99934.06;6153233;23;20019;-83
2023/10/03 08:47:31;;;;;;;24.33;10.40;;;;;;;16.38;81.52;99931.19;6179509;23;20021;-83
2023/10/03 08:50:13;;;;;;;23.40;9.95;;;;;;;16.43;81.65;99933.34;6179102;23;20052;-83
2023/10/03 08:52:47;;;;;;;21.40;9.93;;;;;;;16.49;81.67;99936.19;6155486;23;20024;-84
2023/10/03 08:55:19;;;;;;;23.65;9.85;;;;;;;16.53;81.32;99936.69;6155543;23;20048;-84
2023/10/03 08:57:48;;;;;;;22.13;8.90;;;;;;;16.59;81.48;99927.09;6180026;23;20127;-84
2023/10/03 09:00:16;;;;;;;22.48;9.77;;;;;;;16.62;81.57;99930.28;6204360;23;20385;-83
2023/10/03 09:02:47;;;;;;;21.65;9.55;;;;;;;16.66;81.63;99922.72;6178470;23;20020;-82
2023/10/03 09:05:20;;;;;;;24.23;9.73;;;;;;;16.70;81.70;99926.75;6179591;23;20020;-83
2023/10/03 09:07:48;;;;;;;24.00;10.02;;;;;;;16.73;81.99;99923.72;6153099;23;20023;-82
2023/10/03 09:10:22;;;;;;;21.45;9.55;;;;;;;16.75;82.01;99934.28;6202756;23;20024;-84
2023/10/03 09:12:51;;;;;;;22.02;9.70;;;;;;;16.78;82.47;99929.44;6179186;23;20096;-84
2023/10/03 09:15:22;;;;;;;23.63;10.70;;;;;;;16.81;82.43;99929.06;6179057;23;20028;-84
2023/10/03 09:17:52;;;;;;;23.42;10.02;;;;;;;16.82;82.44;99928.09;6129873;23;20078;-84
2023/10/03 09:20:21;;;;;;;23.13;9.52;;;;;;;16.87;82.56;99922.19;6203220;23;20561;-84
2023/10/03 09:22:49;;;;;;;21.55;9.68;;;;;;;16.90;82.59;99920.00;6205633;23;20079;-83
2023/10/03 09:25:16;;;;;;;24.30;10.23;;;;;;;16.96;82.76;99925.66;6202284;23;20032;-83
2023/10/03 09:27:44;;;;;;;27.27;12.20;;;;;;;16.99;82.89;99925.31;6179103;23;20024;-84
2023/10/03 09:30:22;;;;;;;28.67;12.80;;;;;;;17.03;82.83;99915.91;6177809;23;20024;-84
2023/10/03 09:32:53;;;;;;;35.95;12.88;;;;;;;17.06;82.85;99912.88;6177966;23;20020;-85
2023/10/03 09:35:21;;;;;;;28.15;12.65;;;;;;;17.10;83.19;99912.34;6128193;23;20096;-83
2023/10/03 09:37:51;;;;;;;29.40;12.35;;;;;;;17.10;83.97;99917.72;6178114;23;20025;-84
2023/10/03 09:40:17;;;;;;;30.50;12.00;;;;;;;17.14;84.08;99920.88;6180237;23;20151;-83
2023/10/03 09:42:48;;;;;;;32.88;12.48;;;;;;;17.17;84.05;99906.28;6201044;23;20012;-84
2023/10/03 09:45:18;;;;;;;26.92;11.27;;;;;;;17.20;84.39;99905.91;6201585;23;20098;-85
2023/10/03 09:47:45;;;;;;;33.70;12.48;;;;;;;17.23;84.90;99905.59;6177856;23;20089;-86
2023/10/03 09:50:13;;;;;;;28.40;11.60;;;;;;;17.25;84.62;99899.03;6179247;23;20032;-83
2023/10/03 09:52:44;;;;;;;26.20;11.60;;;;;;;17.27;84.78;99898.81;6152971;23;20020;-85
2023/10/03 09:55:26;;;;;;;28.15;11.95;;;;;;;17.31;84.53;99887.56;6180168;23;20086;-83
2023/10/03 09:57:59;;;;;;;26.83;11.82;;;;;;;17.35;85.03;99888.91;6180470;23;20520;-84
2023/10/03 10:03:13;;;;;;;30.83;11.75;;;;;;;17.43;85.56;99881.78;6202990;23;20017;-83
2023/10/03 10:05:59;;;;;;;31.88;11.85;;;;;;;17.43;86.25;99882.63;6204802;23;20028;-83
2023/10/03 10:08:57;;;;;;;30.83;12.35;;;;;;;17.43;87.43;99884.47;6179911;23;20074;-83
2023/10/03 10:11:30;;;;;;;27.95;11.85;;;;;;;17.51;86.83;99884.41;6181542;23;20086;-83
2023/10/03 10:14:10;;;;;;;25.92;11.43;;;;;;;17.56;87.00;99892.78;6146081;23;20102;-83
2023/10/03 10:17:16;;;;;;;28.95;12.35;;;;;;;17.55;89.15;99889.25;6179214;23;20046;-84
2023/10/03 10:20:11;;;;;;;25.75;10.45;;;;;;;17.63;88.37;99893.72;6010890;23;20451;-85
2023/10/03 10:22:56;;;;;;;28.67;11.50;;;;;;;17.69;89.30;99893.00;6206038;23;20548;-84
2023/10/03 10:25:27;;;;;;;25.70;12.38;;;;;;;17.78;88.27;99885.69;6206776;23;20016;-84
2023/10/03 10:28:08;;;;;;;26.42;11.98;;;;;;;17.81;89.44;99885.38;6071387;23;20028;-85
2023/10/03 10:30:39;;;;;;;23.70;11.85;;;;;;;17.88;89.05;99889.00;6118798;23;20082;-85
2023/10/03 10:33:18;;;;;;;22.38;11.25;;;;;;;17.89;89.47;99890.69;6178679;23;20027;-84
2023/10/03 10:35:49;;;;;;;26.25;11.13;;;;;;;17.94;88.55;99885.59;6154383;23;20401;-85
2023/10/03 10:38:16;;;;;;;26.52;10.65;;;;;;;17.99;88.76;99888.56;6205474;23;20025;-84
2023/10/03 10:41:11;;;;;;;21.73;9.85;;;;;;;17.97;87.91;99882.53;6179560;23;20036;-84
2023/10/03 10:44:09;;;;;;;20.65;9.85;;;;;;;18.03;90.45;99883.66;6152676;23;20372;-84
2023/10/03 10:46:38;;;;;;;21.80;9.52;;;;;;;18.13;89.41;99883.38;6156016;23;20023;-85
2023/10/03 10:49:18;;;;;;;16.95;8.05;;;;;;;18.17;88.71;99877.47;6180037;23;20485;-84
2023/10/03 10:51:55;;;;;;;15.50;8.05;;;;;;;18.19;89.18;99886.19;6154881;23;20074;-85
2023/10/03 10:54:23;;;;;;;15.50;7.70;;;;;;;18.30;88.04;99876.00;6180035;23;20012;-85
2023/10/03 10:57:07;;;;;;;13.77;7.35;;;;;;;18.30;85.92;99876.00;6155414;23;20020;-84
2023/10/03 10:59:40;;;;;;;16.55;7.68;;;;;;;18.35;86.69;99874.41;6203880;23;20024;-84
2023/10/03 11:02:17;;;;;;;11.93;7.50;;;;;;;18.34;87.00;99875.44;6156009;23;20501;-87
2023/10/03 11:04:45;;;;;;;13.70;7.40;;;;;;;18.38;87.41;99868.66;6154542;23;20023;-84
2023/10/03 11:07:20;;;;;;;15.48;7.93;;;;;;;18.39;88.43;99875.72;6179497;23;20028;-84
2023/10/03 11:09:48;;;;;;;15.57;7.57;;;;;;;18.48;88.57;99864.88;6206133;23;20123;-84
2023/10/03 11:12:25;;;;;;;20.70;8.85;;;;;;;18.53;89.71;99868.66;6179415;23;20132;-84
2023/10/03 11:14:54;;;;;;;16.50;7.90;;;;;;;18.59;89.03;99865.22;6129829;23;20762;-84
2023/10/03 11:17:22;;;;;;;13.95;8.10;;;;;;;18.64;89.72;99873.56;6179496;23;20016;-84
2023/10/03 11:19:55;;;;;;;17.70;8.98;;;;;;;18.66;90.40;99868.81;6204786;23;20024;-84
2023/10/03 11:22:22;;;;;;;14.95;8.25;;;;;;;18.71;90.29;99870.13;6179463;23;20016;-85
2023/10/03 11:24:49;;;;;;;17.52;8.50;;;;;;;18.74;90.53;99864.38;6155409;23;20091;-84
2023/10/03 11:27:28;;;;;;;17.63;8.60;;;;;;;18.75;91.33;99869.59;6178992;23;20027;-84
2023/10/03 11:29:55;;;;;;;16.83;8.63;;;;;;;18.84;90.45;99873.00;6131175;23;20524;-84
2023/10/03 11:32:26;;;;;;;15.65;7.68;;;;;;;18.83;90.33;99869.50;6204626;23;20029;-84
2023/10/03 11:34:54;;;;;;;14.63;8.75;;;;;;;18.87;90.56;99873.47;6204704;23;20024;-84
2023/10/03 11:37:39;;;;;;;14.52;8.80;;;;;;;18.81;90.01;99866.16;6154313;23;20024;-85
2023/10/03 11:40:16;;;;;;;14.90;7.63;;;;;;;18.88;89.01;99860.88;6180475;23;20353;-84
2023/10/03 11:43:04;;;;;;;12.55;7.78;;;;;;;18.90;88.61;99877.63;6179832;23;20385;-85
2023/10/03 11:45:33;;;;;;;12.10;7.30;;;;;;;19.02;88.15;99859.97;6178404;23;20487;-84